Terminal Aerodrome Forecast
Issued by NWS

Home | Current Version | Previous Version | Text Only | Print | Product List | Glossary On
Versions: 1 2 3 4 5 6 7 8 9 10 11 12 13 14
000
FTUS43 KJKL 271732
TAFSME
TAF
KSME 271732Z 2718/2818 27009G15KT P6SM BKN030
     FM272330 27008KT P6SM SKC
     FM280500 VRB02KT 4SM BR SKC
     FM280800 VRB01KT 1/2SM FG VV002
     FM281300 28007KT P6SM FEW250=

USA.gov is the U.S. government's official web portal to all federal, state and local government web resources and services.